sensor_id;sensor_type;location;lat;lon;timestamp;P1;durP1;ratioP1;P2;durP2;ratioP2
20056;SDS011;10189;49.546;7.906;2023-09-19T00:00:40;6.75;;;3.75;;
20056;SDS011;10189;49.546;7.906;2023-09-19T00:03:07;5.88;;;4.00;;
20056;SDS011;10189;49.546;7.906;2023-09-19T00:05:34;6.95;;;3.80;;
20056;SDS011;10189;49.546;7.906;2023-09-19T00:08:01;5.38;;;3.75;;
20056;SDS011;10189;49.546;7.906;2023-09-19T00:10:29;5.32;;;3.80;;
20056;SDS011;10189;49.546;7.906;2023-09-19T00:12:57;6.07;;;3.80;;
20056;SDS011;10189;49.546;7.906;2023-09-19T00:15:27;7.38;;;3.67;;
20056;SDS011;10189;49.546;7.906;2023-09-19T00:17:56;6.20;;;4.00;;
20056;SDS011;10189;49.546;7.906;2023-09-19T00:20:22;6.43;;;3.85;;
20056;SDS011;10189;49.546;7.906;2023-09-19T00:22:50;6.03;;;4.35;;
20056;SDS011;10189;49.546;7.906;2023-09-19T00:25:19;4.70;;;4.15;;
20056;SDS011;10189;49.546;7.906;2023-09-19T00:27:46;8.55;;;5.28;;
20056;SDS011;10189;49.546;7.906;2023-09-19T00:30:16;7.97;;;4.93;;
20056;SDS011;10189;49.546;7.906;2023-09-19T00:32:47;8.33;;;5.20;;
20056;SDS011;10189;49.546;7.906;2023-09-19T00:35:19;9.05;;;5.47;;
20056;SDS011;10189;49.546;7.906;2023-09-19T00:37:50;7.80;;;5.00;;
20056;SDS011;10189;49.546;7.906;2023-09-19T00:40:17;7.45;;;5.57;;
20056;SDS011;10189;49.546;7.906;2023-09-19T00:42:44;6.25;;;4.75;;
20056;SDS011;10189;49.546;7.906;2023-09-19T00:45:12;7.32;;;5.55;;
20056;SDS011;10189;49.546;7.906;2023-09-19T00:47:44;6.97;;;5.55;;
20056;SDS011;10189;49.546;7.906;2023-09-19T00:50:14;7.35;;;5.95;;
20056;SDS011;10189;49.546;7.906;2023-09-19T00:52:44;9.50;;;6.07;;
20056;SDS011;10189;49.546;7.906;2023-09-19T00:55:15;7.05;;;6.28;;
20056;SDS011;10189;49.546;7.906;2023-09-19T00:57:45;7.55;;;5.68;;
20056;SDS011;10189;49.546;7.906;2023-09-19T01:00:12;8.07;;;6.00;;
20056;SDS011;10189;49.546;7.906;2023-09-19T01:02:43;8.93;;;6.32;;
20056;SDS011;10189;49.546;7.906;2023-09-19T01:05:12;12.27;;;7.15;;
20056;SDS011;10189;49.546;7.906;2023-09-19T01:07:38;9.40;;;5.93;;
20056;SDS011;10189;49.546;7.906;2023-09-19T01:10:17;12.23;;;7.07;;
20056;SDS011;10189;49.546;7.906;2023-09-19T01:12:54;9.48;;;6.32;;
20056;SDS011;10189;49.546;7.906;2023-09-19T01:16:01;7.10;;;6.35;;
20056;SDS011;10189;49.546;7.906;2023-09-19T01:22:16;7.13;;;5.53;;
20056;SDS011;10189;49.546;7.906;2023-09-19T01:31:02;5.53;;;4.95;;
20056;SDS011;10189;49.546;7.906;2023-09-19T01:36:32;5.18;;;4.68;;
20056;SDS011;10189;49.546;7.906;2023-09-19T01:39:05;5.85;;;5.20;;
20056;SDS011;10189;49.546;7.906;2023-09-19T01:44:31;7.75;;;5.60;;
20056;SDS011;10189;49.546;7.906;2023-09-19T01:47:37;6.55;;;5.32;;
20056;SDS011;10189;49.546;7.906;2023-09-19T01:53:07;8.25;;;6.10;;
20056;SDS011;10189;49.546;7.906;2023-09-19T01:55:46;8.57;;;6.40;;
20056;SDS011;10189;49.546;7.906;2023-09-19T01:58:30;9.55;;;6.57;;
20056;SDS011;10189;49.546;7.906;2023-09-19T02:01:08;10.80;;;6.82;;
20056;SDS011;10189;49.546;7.906;2023-09-19T02:03:43;8.75;;;6.35;;
20056;SDS011;10189;49.546;7.906;2023-09-19T02:06:15;8.50;;;6.13;;
20056;SDS011;10189;49.546;7.906;2023-09-19T02:08:43;8.30;;;6.32;;
20056;SDS011;10189;49.546;7.906;2023-09-19T02:11:13;8.50;;;6.93;;
20056;SDS011;10189;49.546;7.906;2023-09-19T02:13:39;9.82;;;7.13;;
20056;SDS011;10189;49.546;7.906;2023-09-19T02:16:06;7.65;;;6.40;;
20056;SDS011;10189;49.546;7.906;2023-09-19T02:18:34;7.80;;;7.00;;
20056;SDS011;10189;49.546;7.906;2023-09-19T02:21:01;10.77;;;6.82;;
20056;SDS011;10189;49.546;7.906;2023-09-19T02:23:29;8.25;;;6.32;;
20056;SDS011;10189;49.546;7.906;2023-09-19T02:25:58;9.73;;;7.75;;
20056;SDS011;10189;49.546;7.906;2023-09-19T02:28:29;10.02;;;8.65;;
20056;SDS011;10189;49.546;7.906;2023-09-19T02:30:58;12.90;;;10.40;;
20056;SDS011;10189;49.546;7.906;2023-09-19T02:33:24;11.85;;;10.32;;
20056;SDS011;10189;49.546;7.906;2023-09-19T02:35:55;14.05;;;10.98;;
20056;SDS011;10189;49.546;7.906;2023-09-19T02:38:26;11.88;;;10.68;;
20056;SDS011;10189;49.546;7.906;2023-09-19T02:40:53;12.45;;;11.15;;
20056;SDS011;10189;49.546;7.906;2023-09-19T02:43:20;15.32;;;11.07;;
20056;SDS011;10189;49.546;7.906;2023-09-19T02:45:47;11.93;;;10.73;;
20056;SDS011;10189;49.546;7.906;2023-09-19T02:48:15;13.20;;;11.43;;
20056;SDS011;10189;49.546;7.906;2023-09-19T02:50:42;13.70;;;11.88;;
20056;SDS011;10189;49.546;7.906;2023-09-19T02:53:09;18.63;;;12.10;;
20056;SDS011;10189;49.546;7.906;2023-09-19T02:55:39;14.75;;;12.60;;
20056;SDS011;10189;49.546;7.906;2023-09-19T02:58:06;19.25;;;12.93;;
20056;SDS011;10189;49.546;7.906;2023-09-19T03:00:40;16.33;;;12.27;;
20056;SDS011;10189;49.546;7.906;2023-09-19T03:03:13;13.10;;;11.50;;
20056;SDS011;10189;49.546;7.906;2023-09-19T03:05:41;13.48;;;10.45;;
20056;SDS011;10189;49.546;7.906;2023-09-19T03:08:12;14.05;;;11.32;;
20056;SDS011;10189;49.546;7.906;2023-09-19T03:10:44;12.23;;;9.63;;
20056;SDS011;10189;49.546;7.906;2023-09-19T03:13:13;11.50;;;10.30;;
20056;SDS011;10189;49.546;7.906;2023-09-19T03:15:43;12.38;;;10.43;;
20056;SDS011;10189;49.546;7.906;2023-09-19T03:18:11;14.38;;;10.40;;
20056;SDS011;10189;49.546;7.906;2023-09-19T03:20:38;16.38;;;10.35;;
20056;SDS011;10189;49.546;7.906;2023-09-19T03:23:04;17.60;;;11.10;;
20056;SDS011;10189;49.546;7.906;2023-09-19T03:25:34;13.25;;;10.40;;
20056;SDS011;10189;49.546;7.906;2023-09-19T03:28:01;15.35;;;11.38;;
20056;SDS011;10189;49.546;7.906;2023-09-19T03:30:31;16.05;;;10.73;;
20056;SDS011;10189;49.546;7.906;2023-09-19T03:33:01;12.98;;;11.32;;
20056;SDS011;10189;49.546;7.906;2023-09-19T03:35:30;16.20;;;11.90;;
20056;SDS011;10189;49.546;7.906;2023-09-19T03:37:56;14.32;;;11.30;;
20056;SDS011;10189;49.546;7.906;2023-09-19T03:40:23;16.73;;;11.40;;
20056;SDS011;10189;49.546;7.906;2023-09-19T03:42:50;14.90;;;12.10;;
20056;SDS011;10189;49.546;7.906;2023-09-19T03:45:16;17.92;;;12.95;;
20056;SDS011;10189;49.546;7.906;2023-09-19T03:50:14;18.23;;;12.50;;
20056;SDS011;10189;49.546;7.906;2023-09-19T03:52:43;16.80;;;12.30;;
20056;SDS011;10189;49.546;7.906;2023-09-19T03:55:09;17.55;;;12.23;;
20056;SDS011;10189;49.546;7.906;2023-09-19T03:57:37;15.35;;;12.15;;
20056;SDS011;10189;49.546;7.906;2023-09-19T04:00:03;16.95;;;13.10;;
20056;SDS011;10189;49.546;7.906;2023-09-19T04:02:38;17.73;;;12.18;;
20056;SDS011;10189;49.546;7.906;2023-09-19T04:05:05;15.98;;;12.10;;
20056;SDS011;10189;49.546;7.906;2023-09-19T04:07:31;17.23;;;13.00;;
20056;SDS011;10189;49.546;7.906;2023-09-19T04:09:57;14.82;;;11.77;;
20056;SDS011;10189;49.546;7.906;2023-09-19T04:12:23;15.50;;;11.77;;
20056;SDS011;10189;49.546;7.906;2023-09-19T04:14:49;17.77;;;11.50;;
20056;SDS011;10189;49.546;7.906;2023-09-19T04:17:15;14.35;;;10.98;;
20056;SDS011;10189;49.546;7.906;2023-09-19T04:19:41;17.15;;;11.38;;
20056;SDS011;10189;49.546;7.906;2023-09-19T04:22:07;17.20;;;10.77;;
20056;SDS011;10189;49.546;7.906;2023-09-19T04:24:34;13.32;;;9.73;;
20056;SDS011;10189;49.546;7.906;2023-09-19T04:27:00;17.92;;;9.88;;
20056;SDS011;10189;49.546;7.906;2023-09-19T04:29:26;13.52;;;9.70;;
20056;SDS011;10189;49.546;7.906;2023-09-19T04:31:54;14.57;;;9.40;;
20056;SDS011;10189;49.546;7.906;2023-09-19T04:34:28;13.23;;;8.77;;
20056;SDS011;10189;49.546;7.906;2023-09-19T04:36:55;13.90;;;9.32;;
20056;SDS011;10189;49.546;7.906;2023-09-19T04:39:23;11.60;;;8.95;;
20056;SDS011;10189;49.546;7.906;2023-09-19T04:41:51;12.55;;;8.75;;
20056;SDS011;10189;49.546;7.906;2023-09-19T04:44:18;11.07;;;8.35;;
20056;SDS011;10189;49.546;7.906;2023-09-19T04:46:44;12.43;;;8.20;;
20056;SDS011;10189;49.546;7.906;2023-09-19T04:49:11;13.20;;;9.10;;
20056;SDS011;10189;49.546;7.906;2023-09-19T04:51:38;10.60;;;7.45;;
20056;SDS011;10189;49.546;7.906;2023-09-19T04:54:05;11.30;;;7.75;;
20056;SDS011;10189;49.546;7.906;2023-09-19T04:56:31;9.85;;;7.38;;
20056;SDS011;10189;49.546;7.906;2023-09-19T04:58:58;12.85;;;7.50;;
20056;SDS011;10189;49.546;7.906;2023-09-19T05:01:25;11.30;;;7.32;;
20056;SDS011;10189;49.546;7.906;2023-09-19T05:03:52;11.48;;;7.57;;
20056;SDS011;10189;49.546;7.906;2023-09-19T05:06:18;13.70;;;7.07;;
20056;SDS011;10189;49.546;7.906;2023-09-19T05:08:48;12.63;;;7.22;;
20056;SDS011;10189;49.546;7.906;2023-09-19T05:11:18;10.15;;;7.05;;
20056;SDS011;10189;49.546;7.906;2023-09-19T05:13:47;12.20;;;7.43;;
20056;SDS011;10189;49.546;7.906;2023-09-19T05:16:12;13.18;;;7.25;;
20056;SDS011;10189;49.546;7.906;2023-09-19T05:18:38;11.98;;;6.93;;
20056;SDS011;10189;49.546;7.906;2023-09-19T05:21:04;10.80;;;6.38;;
20056;SDS011;10189;49.546;7.906;2023-09-19T05:23:30;11.88;;;6.18;;
20056;SDS011;10189;49.546;7.906;2023-09-19T05:25:56;14.13;;;5.85;;
20056;SDS011;10189;49.546;7.906;2023-09-19T05:28:25;9.38;;;5.40;;
20056;SDS011;10189;49.546;7.906;2023-09-19T05:30:52;14.45;;;6.30;;
20056;SDS011;10189;49.546;7.906;2023-09-19T05:33:18;11.15;;;5.10;;
20056;SDS011;10189;49.546;7.906;2023-09-19T05:35:45;7.10;;;4.35;;
20056;SDS011;10189;49.546;7.906;2023-09-19T05:38:13;12.13;;;5.22;;
20056;SDS011;10189;49.546;7.906;2023-09-19T05:40:44;10.40;;;4.78;;
20056;SDS011;10189;49.546;7.906;2023-09-19T05:43:11;10.07;;;4.95;;
20056;SDS011;10189;49.546;7.906;2023-09-19T05:45:39;8.50;;;4.63;;
20056;SDS011;10189;49.546;7.906;2023-09-19T05:48:13;8.60;;;4.63;;
20056;SDS011;10189;49.546;7.906;2023-09-19T05:50:41;11.65;;;4.40;;
20056;SDS011;10189;49.546;7.906;2023-09-19T05:53:08;9.50;;;4.75;;
20056;SDS011;10189;49.546;7.906;2023-09-19T05:55:39;7.57;;;4.78;;
20056;SDS011;10189;49.546;7.906;2023-09-19T05:58:06;9.90;;;4.93;;
20056;SDS011;10189;49.546;7.906;2023-09-19T06:00:32;10.35;;;5.55;;
20056;SDS011;10189;49.546;7.906;2023-09-19T06:02:58;9.05;;;4.40;;
20056;SDS011;10189;49.546;7.906;2023-09-19T06:05:25;7.70;;;4.75;;
20056;SDS011;10189;49.546;7.906;2023-09-19T06:07:52;6.68;;;4.45;;
20056;SDS011;10189;49.546;7.906;2023-09-19T06:10:19;9.25;;;5.32;;
20056;SDS011;10189;49.546;7.906;2023-09-19T06:12:48;8.75;;;4.57;;
20056;SDS011;10189;49.546;7.906;2023-09-19T06:15:14;9.30;;;4.13;;
20056;SDS011;10189;49.546;7.906;2023-09-19T06:17:47;7.53;;;4.22;;
20056;SDS011;10189;49.546;7.906;2023-09-19T06:20:21;11.60;;;4.35;;
20056;SDS011;10189;49.546;7.906;2023-09-19T06:22:48;8.15;;;3.90;;
20056;SDS011;10189;49.546;7.906;2023-09-19T06:25:15;8.20;;;4.35;;
20056;SDS011;10189;49.546;7.906;2023-09-19T06:27:45;8.70;;;4.45;;
20056;SDS011;10189;49.546;7.906;2023-09-19T06:30:12;12.40;;;5.25;;
20056;SDS011;10189;49.546;7.906;2023-09-19T06:32:39;9.18;;;4.18;;
20056;SDS011;10189;49.546;7.906;2023-09-19T06:35:10;7.28;;;4.30;;
20056;SDS011;10189;49.546;7.906;2023-09-19T06:37:38;8.15;;;4.07;;
20056;SDS011;10189;49.546;7.906;2023-09-19T06:40:09;6.50;;;3.53;;
20056;SDS011;10189;49.546;7.906;2023-09-19T06:42:42;7.38;;;3.70;;
20056;SDS011;10189;49.546;7.906;2023-09-19T06:45:11;8.48;;;3.72;;
20056;SDS011;10189;49.546;7.906;2023-09-19T06:47:42;9.35;;;3.40;;
20056;SDS011;10189;49.546;7.906;2023-09-19T06:50:15;7.20;;;3.45;;
20056;SDS011;10189;49.546;7.906;2023-09-19T06:52:52;12.20;;;3.65;;
20056;SDS011;10189;49.546;7.906;2023-09-19T06:55:20;10.20;;;3.75;;
20056;SDS011;10189;49.546;7.906;2023-09-19T06:57:50;6.13;;;3.53;;
20056;SDS011;10189;49.546;7.906;2023-09-19T07:00:16;7.68;;;3.80;;
20056;SDS011;10189;49.546;7.906;2023-09-19T07:03:01;6.60;;;3.65;;
20056;SDS011;10189;49.546;7.906;2023-09-19T07:05:38;5.13;;;3.05;;
20056;SDS011;10189;49.546;7.906;2023-09-19T07:08:06;5.88;;;3.10;;
20056;SDS011;10189;49.546;7.906;2023-09-19T07:10:34;8.45;;;3.28;;
20056;SDS011;10189;49.546;7.906;2023-09-19T07:13:01;8.02;;;3.13;;
20056;SDS011;10189;49.546;7.906;2023-09-19T07:15:34;11.50;;;3.22;;
20056;SDS011;10189;49.546;7.906;2023-09-19T07:18:06;6.88;;;3.20;;
20056;SDS011;10189;49.546;7.906;2023-09-19T07:20:36;10.52;;;3.13;;
20056;SDS011;10189;49.546;7.906;2023-09-19T07:23:02;7.80;;;3.35;;
20056;SDS011;10189;49.546;7.906;2023-09-19T07:25:28;6.53;;;2.80;;
20056;SDS011;10189;49.546;7.906;2023-09-19T07:27:54;9.00;;;3.33;;
20056;SDS011;10189;49.546;7.906;2023-09-19T07:30:27;11.73;;;3.03;;
20056;SDS011;10189;49.546;7.906;2023-09-19T07:32:53;6.68;;;2.92;;
20056;SDS011;10189;49.546;7.906;2023-09-19T07:35:19;8.73;;;2.72;;
20056;SDS011;10189;49.546;7.906;2023-09-19T07:37:48;11.45;;;2.70;;
20056;SDS011;10189;49.546;7.906;2023-09-19T07:40:18;7.78;;;2.90;;
20056;SDS011;10189;49.546;7.906;2023-09-19T07:42:45;7.13;;;3.10;;
20056;SDS011;10189;49.546;7.906;2023-09-19T07:45:12;5.95;;;2.47;;
20056;SDS011;10189;49.546;7.906;2023-09-19T07:47:45;11.80;;;3.43;;
20056;SDS011;10189;49.546;7.906;2023-09-19T07:50:16;5.97;;;3.03;;
20056;SDS011;10189;49.546;7.906;2023-09-19T07:52:44;5.70;;;2.65;;
20056;SDS011;10189;49.546;7.906;2023-09-19T07:55:11;7.15;;;2.95;;
20056;SDS011;10189;49.546;7.906;2023-09-19T08:00:09;10.13;;;3.50;;
20056;SDS011;10189;49.546;7.906;2023-09-19T08:02:41;7.78;;;3.08;;
20056;SDS011;10189;49.546;7.906;2023-09-19T08:05:12;7.85;;;3.20;;
20056;SDS011;10189;49.546;7.906;2023-09-19T08:07:43;9.88;;;2.95;;
20056;SDS011;10189;49.546;7.906;2023-09-19T08:10:21;8.10;;;3.17;;
20056;SDS011;10189;49.546;7.906;2023-09-19T08:12:47;7.10;;;3.30;;
20056;SDS011;10189;49.546;7.906;2023-09-19T08:15:14;14.52;;;3.42;;
20056;SDS011;10189;49.546;7.906;2023-09-19T08:17:42;9.75;;;3.25;;
20056;SDS011;10189;49.546;7.906;2023-09-19T08:20:08;9.23;;;3.55;;
20056;SDS011;10189;49.546;7.906;2023-09-19T08:22:48;10.30;;;3.25;;
20056;SDS011;10189;49.546;7.906;2023-09-19T08:25:22;9.02;;;3.13;;
20056;SDS011;10189;49.546;7.906;2023-09-19T08:27:50;7.55;;;3.22;;
20056;SDS011;10189;49.546;7.906;2023-09-19T08:30:17;9.55;;;3.90;;
20056;SDS011;10189;49.546;7.906;2023-09-19T08:32:58;9.43;;;3.38;;
20056;SDS011;10189;49.546;7.906;2023-09-19T08:35:25;9.43;;;3.20;;
20056;SDS011;10189;49.546;7.906;2023-09-19T08:37:52;12.93;;;3.60;;
20056;SDS011;10189;49.546;7.906;2023-09-19T08:40:20;11.43;;;3.70;;
20056;SDS011;10189;49.546;7.906;2023-09-19T08:42:53;7.88;;;3.85;;
20056;SDS011;10189;49.546;7.906;2023-09-19T08:45:21;9.32;;;3.70;;
20056;SDS011;10189;49.546;7.906;2023-09-19T08:51:05;7.18;;;3.45;;
20056;SDS011;10189;49.546;7.906;2023-09-19T08:56:24;12.77;;;4.32;;
20056;SDS011;10189;49.546;7.906;2023-09-19T08:58:55;9.35;;;3.58;;
20056;SDS011;10189;49.546;7.906;2023-09-19T09:01:28;12.27;;;3.80;;
20056;SDS011;10189;49.546;7.906;2023-09-19T09:03:57;7.20;;;3.65;;
20056;SDS011;10189;49.546;7.906;2023-09-19T09:06:25;9.40;;;3.80;;
20056;SDS011;10189;49.546;7.906;2023-09-19T09:08:53;9.60;;;3.80;;
20056;SDS011;10189;49.546;7.906;2023-09-19T09:11:19;13.40;;;3.80;;
20056;SDS011;10189;49.546;7.906;2023-09-19T09:13:47;7.50;;;3.50;;
20056;SDS011;10189;49.546;7.906;2023-09-19T09:16:13;8.75;;;3.53;;
20056;SDS011;10189;49.546;7.906;2023-09-19T09:18:44;9.13;;;3.78;;
20056;SDS011;10189;49.546;7.906;2023-09-19T09:21:11;13.02;;;3.15;;
20056;SDS011;10189;49.546;7.906;2023-09-19T09:23:39;9.50;;;2.70;;
20056;SDS011;10189;49.546;7.906;2023-09-19T09:26:05;10.52;;;3.22;;
20056;SDS011;10189;49.546;7.906;2023-09-19T09:28:33;6.05;;;2.90;;
20056;SDS011;10189;49.546;7.906;2023-09-19T09:31:01;9.85;;;2.78;;
20056;SDS011;10189;49.546;7.906;2023-09-19T09:33:34;8.20;;;3.15;;
20056;SDS011;10189;49.546;7.906;2023-09-19T09:36:02;7.00;;;2.80;;
20056;SDS011;10189;49.546;7.906;2023-09-19T09:38:42;12.88;;;3.42;;
20056;SDS011;10189;49.546;7.906;2023-09-19T09:43:41;6.75;;;2.40;;
20056;SDS011;10189;49.546;7.906;2023-09-19T09:46:17;8.87;;;2.40;;
20056;SDS011;10189;49.546;7.906;2023-09-19T09:51:49;7.55;;;2.53;;
20056;SDS011;10189;49.546;7.906;2023-09-19T09:54:33;6.78;;;2.38;;
20056;SDS011;10189;49.546;7.906;2023-09-19T09:59:52;7.60;;;2.45;;
20056;SDS011;10189;49.546;7.906;2023-09-19T10:02:28;7.32;;;2.50;;
20056;SDS011;10189;49.546;7.906;2023-09-19T10:05:11;7.18;;;2.20;;
20056;SDS011;10189;49.546;7.906;2023-09-19T10:07:53;6.38;;;2.35;;
20056;SDS011;10189;49.546;7.906;2023-09-19T10:10:40;7.05;;;2.40;;
20056;SDS011;10189;49.546;7.906;2023-09-19T10:13:06;4.85;;;2.63;;
20056;SDS011;10189;49.546;7.906;2023-09-19T10:15:39;5.65;;;2.42;;
20056;SDS011;10189;49.546;7.906;2023-09-19T10:18:16;8.20;;;2.30;;
20056;SDS011;10189;49.546;7.906;2023-09-19T10:23:14;7.85;;;2.60;;
20056;SDS011;10189;49.546;7.906;2023-09-19T10:25:48;7.43;;;2.88;;
20056;SDS011;10189;49.546;7.906;2023-09-19T10:28:16;6.65;;;2.13;;
20056;SDS011;10189;49.546;7.906;2023-09-19T10:33:15;7.75;;;2.58;;
20056;SDS011;10189;49.546;7.906;2023-09-19T10:35:50;7.05;;;2.13;;
20056;SDS011;10189;49.546;7.906;2023-09-19T10:38:17;5.55;;;2.28;;
20056;SDS011;10189;49.546;7.906;2023-09-19T10:40:50;6.53;;;2.28;;
20056;SDS011;10189;49.546;7.906;2023-09-19T10:43:18;7.05;;;2.65;;
20056;SDS011;10189;49.546;7.906;2023-09-19T10:45:47;7.65;;;2.20;;
20056;SDS011;10189;49.546;7.906;2023-09-19T10:48:17;4.95;;;2.10;;
20056;SDS011;10189;49.546;7.906;2023-09-19T10:53:47;9.23;;;2.35;;
20056;SDS011;10189;49.546;7.906;2023-09-19T10:56:30;5.32;;;2.10;;
20056;SDS011;10189;49.546;7.906;2023-09-19T11:04:34;4.72;;;2.05;;
20056;SDS011;10189;49.546;7.906;2023-09-19T11:07:08;5.38;;;2.03;;
20056;SDS011;10189;49.546;7.906;2023-09-19T11:12:51;6.32;;;2.30;;
20056;SDS011;10189;49.546;7.906;2023-09-19T11:16:02;6.32;;;1.80;;
20056;SDS011;10189;49.546;7.906;2023-09-19T11:26:47;5.00;;;2.13;;
20056;SDS011;10189;49.546;7.906;2023-09-19T11:29:29;7.35;;;2.10;;
20056;SDS011;10189;49.546;7.906;2023-09-19T11:31:56;3.25;;;1.77;;
20056;SDS011;10189;49.546;7.906;2023-09-19T11:34:37;6.53;;;2.22;;
20056;SDS011;10189;49.546;7.906;2023-09-19T11:39:37;4.07;;;2.22;;
20056;SDS011;10189;49.546;7.906;2023-09-19T11:48:22;4.43;;;1.88;;
20056;SDS011;10189;49.546;7.906;2023-09-19T11:50:52;4.65;;;1.95;;
20056;SDS011;10189;49.546;7.906;2023-09-19T11:53:18;3.83;;;2.20;;
20056;SDS011;10189;49.546;7.906;2023-09-19T11:55:47;4.75;;;2.00;;
20056;SDS011;10189;49.546;7.906;2023-09-19T11:58:15;4.20;;;2.10;;
20056;SDS011;10189;49.546;7.906;2023-09-19T12:00:43;2.88;;;2.13;;
20056;SDS011;10189;49.546;7.906;2023-09-19T12:03:11;3.35;;;2.08;;
20056;SDS011;10189;49.546;7.906;2023-09-19T12:05:39;5.70;;;2.35;;
20056;SDS011;10189;49.546;7.906;2023-09-19T12:08:05;5.00;;;2.15;;
20056;SDS011;10189;49.546;7.906;2023-09-19T12:10:47;6.63;;;1.98;;
20056;SDS011;10189;49.546;7.906;2023-09-19T12:13:17;5.70;;;1.90;;
20056;SDS011;10189;49.546;7.906;2023-09-19T12:15:46;7.97;;;2.35;;
20056;SDS011;10189;49.546;7.906;2023-09-19T12:18:28;4.88;;;2.10;;
20056;SDS011;10189;49.546;7.906;2023-09-19T12:20:55;3.03;;;1.77;;
20056;SDS011;10189;49.546;7.906;2023-09-19T12:23:22;4.65;;;1.92;;
20056;SDS011;10189;49.546;7.906;2023-09-19T12:25:51;4.22;;;1.70;;
20056;SDS011;10189;49.546;7.906;2023-09-19T12:28:19;3.97;;;1.92;;
20056;SDS011;10189;49.546;7.906;2023-09-19T12:30:47;4.63;;;2.00;;
20056;SDS011;10189;49.546;7.906;2023-09-19T12:33:17;5.25;;;1.95;;
20056;SDS011;10189;49.546;7.906;2023-09-19T12:35:51;4.85;;;2.03;;
20056;SDS011;10189;49.546;7.906;2023-09-19T12:38:28;5.30;;;1.90;;
20056;SDS011;10189;49.546;7.906;2023-09-19T12:40:57;3.90;;;1.83;;
20056;SDS011;10189;49.546;7.906;2023-09-19T12:45:53;3.25;;;1.73;;
20056;SDS011;10189;49.546;7.906;2023-09-19T12:48:22;5.28;;;2.33;;
20056;SDS011;10189;49.546;7.906;2023-09-19T12:53:25;2.67;;;1.48;;
20056;SDS011;10189;49.546;7.906;2023-09-19T12:55:58;4.43;;;1.67;;
20056;SDS011;10189;49.546;7.906;2023-09-19T12:58:25;2.25;;;1.33;;
20056;SDS011;10189;49.546;7.906;2023-09-19T13:00:52;3.88;;;1.38;;
20056;SDS011;10189;49.546;7.906;2023-09-19T13:05:54;6.35;;;1.70;;
20056;SDS011;10189;49.546;7.906;2023-09-19T13:08:33;2.95;;;1.70;;
20056;SDS011;10189;49.546;7.906;2023-09-19T13:11:11;2.72;;;1.45;;
20056;SDS011;10189;49.546;7.906;2023-09-19T13:13:41;5.60;;;1.50;;
20056;SDS011;10189;49.546;7.906;2023-09-19T13:16:10;2.95;;;1.33;;
20056;SDS011;10189;49.546;7.906;2023-09-19T13:18:58;4.05;;;1.40;;
20056;SDS011;10189;49.546;7.906;2023-09-19T13:21:32;6.07;;;1.45;;
20056;SDS011;10189;49.546;7.906;2023-09-19T13:24:23;4.93;;;1.52;;
20056;SDS011;10189;49.546;7.906;2023-09-19T13:26:54;5.55;;;1.50;;
20056;SDS011;10189;49.546;7.906;2023-09-19T13:29:22;5.75;;;1.60;;
20056;SDS011;10189;49.546;7.906;2023-09-19T13:31:51;3.45;;;1.45;;
20056;SDS011;10189;49.546;7.906;2023-09-19T13:34:18;3.60;;;1.27;;
20056;SDS011;10189;49.546;7.906;2023-09-19T13:36:45;2.90;;;1.23;;
20056;SDS011;10189;49.546;7.906;2023-09-19T13:39:15;3.00;;;1.55;;
20056;SDS011;10189;49.546;7.906;2023-09-19T13:41:46;4.80;;;1.73;;
20056;SDS011;10189;49.546;7.906;2023-09-19T13:44:13;2.03;;;1.58;;
20056;SDS011;10189;49.546;7.906;2023-09-19T13:46:39;3.03;;;1.40;;
20056;SDS011;10189;49.546;7.906;2023-09-19T13:49:08;4.47;;;1.60;;
20056;SDS011;10189;49.546;7.906;2023-09-19T13:51:34;5.63;;;1.45;;
20056;SDS011;10189;49.546;7.906;2023-09-19T13:54:00;4.78;;;1.60;;
20056;SDS011;10189;49.546;7.906;2023-09-19T13:56:26;4.22;;;1.65;;
20056;SDS011;10189;49.546;7.906;2023-09-19T13:58:57;4.97;;;1.58;;
20056;SDS011;10189;49.546;7.906;2023-09-19T14:01:22;3.75;;;1.80;;
20056;SDS011;10189;49.546;7.906;2023-09-19T14:03:49;3.60;;;1.13;;
20056;SDS011;10189;49.546;7.906;2023-09-19T14:06:16;4.90;;;1.75;;
20056;SDS011;10189;49.546;7.906;2023-09-19T14:08:43;2.65;;;1.33;;
20056;SDS011;10189;49.546;7.906;2023-09-19T14:11:13;3.23;;;1.23;;
20056;SDS011;10189;49.546;7.906;2023-09-19T14:13:39;4.72;;;1.30;;
20056;SDS011;10189;49.546;7.906;2023-09-19T14:16:08;4.28;;;1.40;;
20056;SDS011;10189;49.546;7.906;2023-09-19T14:18:34;3.88;;;1.20;;
20056;SDS011;10189;49.546;7.906;2023-09-19T14:21:03;4.65;;;1.60;;
20056;SDS011;10189;49.546;7.906;2023-09-19T14:23:36;3.92;;;1.55;;
20056;SDS011;10189;49.546;7.906;2023-09-19T14:26:03;6.00;;;1.42;;
20056;SDS011;10189;49.546;7.906;2023-09-19T14:28:33;3.47;;;1.60;;
20056;SDS011;10189;49.546;7.906;2023-09-19T14:31:08;2.45;;;1.30;;
20056;SDS011;10189;49.546;7.906;2023-09-19T14:33:36;4.32;;;1.40;;
20056;SDS011;10189;49.546;7.906;2023-09-19T14:36:06;3.28;;;1.40;;
20056;SDS011;10189;49.546;7.906;2023-09-19T14:38:36;4.63;;;1.33;;
20056;SDS011;10189;49.546;7.906;2023-09-19T14:41:03;3.33;;;1.35;;
20056;SDS011;10189;49.546;7.906;2023-09-19T14:43:31;3.63;;;1.20;;
20056;SDS011;10189;49.546;7.906;2023-09-19T14:46:03;2.60;;;1.38;;
20056;SDS011;10189;49.546;7.906;2023-09-19T14:48:38;2.17;;;1.17;;
20056;SDS011;10189;49.546;7.906;2023-09-19T14:51:04;4.93;;;1.35;;
20056;SDS011;10189;49.546;7.906;2023-09-19T14:53:33;3.00;;;1.48;;
20056;SDS011;10189;49.546;7.906;2023-09-19T14:56:03;4.63;;;1.38;;
20056;SDS011;10189;49.546;7.906;2023-09-19T14:58:31;3.75;;;1.85;;
20056;SDS011;10189;49.546;7.906;2023-09-19T15:01:04;3.13;;;1.42;;
20056;SDS011;10189;49.546;7.906;2023-09-19T15:03:38;6.95;;;1.60;;
20056;SDS011;10189;49.546;7.906;2023-09-19T15:06:08;3.47;;;1.20;;
20056;SDS011;10189;49.546;7.906;2023-09-19T15:08:40;2.47;;;1.58;;
20056;SDS011;10189;49.546;7.906;2023-09-19T15:11:11;4.50;;;1.17;;
20056;SDS011;10189;49.546;7.906;2023-09-19T15:13:37;4.25;;;1.50;;
20056;SDS011;10189;49.546;7.906;2023-09-19T15:16:07;2.42;;;1.33;;
20056;SDS011;10189;49.546;7.906;2023-09-19T15:18:36;2.95;;;1.38;;
20056;SDS011;10189;49.546;7.906;2023-09-19T15:21:04;3.17;;;1.40;;
20056;SDS011;10189;49.546;7.906;2023-09-19T15:23:32;2.75;;;1.20;;
20056;SDS011;10189;49.546;7.906;2023-09-19T15:26:05;3.58;;;1.50;;
20056;SDS011;10189;49.546;7.906;2023-09-19T15:28:42;1.88;;;1.13;;
20056;SDS011;10189;49.546;7.906;2023-09-19T15:31:08;2.80;;;1.30;;
20056;SDS011;10189;49.546;7.906;2023-09-19T15:33:37;3.58;;;1.30;;
20056;SDS011;10189;49.546;7.906;2023-09-19T15:36:04;1.70;;;1.02;;
20056;SDS011;10189;49.546;7.906;2023-09-19T15:41:34;4.07;;;1.65;;
20056;SDS011;10189;49.546;7.906;2023-09-19T15:44:12;2.20;;;1.27;;
20056;SDS011;10189;49.546;7.906;2023-09-19T15:46:41;2.33;;;1.02;;
20056;SDS011;10189;49.546;7.906;2023-09-19T15:49:07;1.27;;;1.15;;
20056;SDS011;10189;49.546;7.906;2023-09-19T15:51:34;4.65;;;2.33;;
20056;SDS011;10189;49.546;7.906;2023-09-19T15:54:07;7.47;;;3.92;;
20056;SDS011;10189;49.546;7.906;2023-09-19T15:56:36;4.38;;;1.52;;
20056;SDS011;10189;49.546;7.906;2023-09-19T15:59:01;6.15;;;3.30;;
20056;SDS011;10189;49.546;7.906;2023-09-19T16:01:28;4.20;;;1.40;;
20056;SDS011;10189;49.546;7.906;2023-09-19T16:03:54;5.07;;;1.92;;
20056;SDS011;10189;49.546;7.906;2023-09-19T16:06:24;3.72;;;2.28;;
20056;SDS011;10189;49.546;7.906;2023-09-19T16:08:55;3.20;;;1.17;;
20056;SDS011;10189;49.546;7.906;2023-09-19T16:11:24;3.05;;;1.90;;
20056;SDS011;10189;49.546;7.906;2023-09-19T16:13:53;3.72;;;1.70;;
20056;SDS011;10189;49.546;7.906;2023-09-19T16:16:19;1.70;;;1.30;;
20056;SDS011;10189;49.546;7.906;2023-09-19T16:18:50;3.78;;;2.33;;
20056;SDS011;10189;49.546;7.906;2023-09-19T16:21:22;3.55;;;1.70;;